AirNav   Everest Fuels
 
 1144 users online  

VA38 LZ Alfa Heliport
Virginia Beach, Virginia, USA

GOING TO VIRGINIA BEACH?


FAA INFORMATION EFFECTIVE 08 SEPTEMBER 2022

Location

FAA Identifier: VA38
Lat/Long: 36-47-35.5380N 075-57-52.7430W
36-47.592300N 075-57.879050W
36.7932050,-75.9646508
(estimated)
Elevation: 10 ft. / 3 m (estimated)
Variation: 09W (1985)
From city: 3 miles S of VIRGINIA BEACH, VA
Time zone: UTC -4 (UTC -5 during Standard Time)
Zip code: 23461

Heliport Operations

Heliport use: Private use. Permission required prior to landing
Activation date: 12/1992
Control tower: no
ARTCC: WASHINGTON CENTER
FSS: LEESBURG FLIGHT SERVICE STATION
Attendance: UNATNDD
Wind indicator: yes
Segmented circle: no

Heliport Communications

WX ASOS at NTU (4 nm NW): PHONE DSN 433-3619 or 757-433-3619
WX ASOS at ORF (13 nm NW): PHONE 757-460-9348
WX AWOS-3 at CPK (19 nm SW): 123.675 (757-204-4290)

Nearby radio navigation aids

VOR radial/distance  VOR name  Freq  Var
ORFr125/12.8NORFOLK VORTAC116.9007W
CCVr187/33.3CAPE CHARLES VORTAC112.2010W
ECGr025/33.7ELIZABETH CITY VOR/DME112.5007W

 
NDB name  Hdg/Dist  Freq  Var  ID
INGLE111/14.132909WOR --- .-.
WOODVILLE037/35.625410WLLW .-.. .-.. .--

Heliport Services

Runway Information

Helipad H1

Dimensions: 100 x 100 ft. / 30 x 30 m
Surface: asphalt
Traffic pattern: leftleft

Heliport Ownership and Management from official FAA records

Ownership: U.S. Navy
Owner: NAVAL SPECIAL WARFARE DEV GRP
NAVAL FACILITY DAM NECK
VIRGINIA BEACH, VA 23461-2299
Phone 804-433-7960

Additional Remarks

FOR CD CTC WASHINGTON ARTCC AT 703-771-3587.

Instrument Procedures

There are no published instrument procedures at VA38.

Some nearby airports with instrument procedures:

KNTU - Oceana Naval Air Station (Apollo Soucek Field) (4 nm NW)
KORF - Norfolk International Airport (13 nm NW)
KNGU - Norfolk Naval Station (Chambers Field) (18 nm NW)
KCPK - Chesapeake Regional Airport (19 nm SW)
KNHU - Norfolk Naval Station Airport (19 nm NW)
 
Loc | Ops | Rwys | IFR | FBO | Links
Com | Nav | Svcs | Stats | Notes
Area around VA38 (LZ Alfa Heliport)
 
Road maps at: MapQuest Bing Google
 
Aerial photo
No photo
 
Sectional chart

 
Airport distance calculator
Flying to LZ Alfa Heliport? Find the distance to fly.

From to VA38

Sunrise and sunset
Times for 03-Oct-2022
 Local
(UTC-4)
 Zulu
(UTC)
Morning civil twilight06:3610:36
Sunrise07:0211:02
Sunset18:4422:44
Evening civil twilight19:1023:10

Current date and time
Zulu (UTC)  04-Oct-2022 00:25:40
Local (UTC-4)  03-Oct-2022 20:25:40
 
METAR
KNTU 
3nm NW 
032356Z AUTO 36021G29KT 3SM -RA BR BKN011 BKN016 OVC023 12/11 A3004 RMK AO2 PK WND 36032/2331 VIS 2 RWY 5R SLP174 P0007 60026 T01170106 10133 20117 53002 $
KNFE 
10nm SW 
032356Z AUTO 35008G20KT 5SM -RA BR BKN009 OVC015 13/11 A3005 RMK AO2 SLP177 P0002 60014 T01280106 10144 20128 51009
KORF 
13nm NW 
032359Z 36019G30KT 3SM -RA BR SCT008 BKN013 OVC019 12/11 A3006 RMK AO2 PK WND 35030/2359 P0001 T01170111
KNGU 
16nm NW 
032359Z AUTO 34017G28KT 5SM -RA BR BKN010 OVC015 12/09 A3009 RMK AO2 PK WND 34028/2359 SLP189 P0001 60012 T01170094 10128 20117 51006
KCPK 
19nm SW 
032355Z AUTO 33010G16KT 10/09 A3006 RMK AO2 60001 T01020089 10123 20102
TAF
KNTU 
3nm NW 
0323/0423 33018G28KT 9999 VCSH SCT008 BKN025 OVC040 520009 QNH2993INS TEMPO 0323/0404 4000 SHRA BR BKN008 OVC025 BECMG 0402/0404 32018G25KT 6000 SHRA BR SCT007 BKN015 OVC035 520009 QNH2990INS TEMPO 0405/0409 3200 SHRA BR BKN008 OVC030 BECMG 0410/0412 36020G30KT 9999 VCSH SCT007 BKN010 OVC015 520009 QNH2988INS TEMPO 0415/0421 4000 SHRA BR BKN008 OVC020 AUTOMATED SENSOR METWATCH 0323 TIL 0408 T16/0320Z T11/0403Z FN00247
KORF 
13nm NW 
031720Z 0318/0418 35022G32KT 5SM -RA BR SCT009 BKN015 TEMPO 0318/0321 2SM RA BKN009 FM032200 36022G32KT 4SM -RA BR OVC008 FM040500 35018G28KT 4SM -RA BR OVC005 FM041200 35018G28KT 6SM BR BKN010
KNGU 
16nm NW 
0323/0423 35020G30KT 9999 VCSH SCT008 BKN025 OVC040 520009 QNH2993INS TEMPO 0323/0404 4000 SHRA BR BKN008 OVC025 BECMG 0402/0404 36020G30KT 6000 SHRA BR SCT007 BKN015 OVC035 520009 QNH2990INS TEMPO 0405/0409 3200 SHRA BR BKN008 OVC030 FM040900 35020G30KT 9999 VCSH SCT005 BKN015 OVC040 520009 QNH2988INS BECMG 0413/0415 32018G25KT 9999 VCSH SCT015 BKN028 520009 QNH2990INS TEMPO 0415/0421 4000 SHRA BR BKN008 OVC020 AUTOMATED SENSOR METWATCH 0323 TIL 0408 T15/0318Z T12/0409Z FN00247
NOTAMs
Click for the latest NOTAMs
NOTAMs are issued by the DoD/FAA and will open in a separate window not controlled by AirNav.

 

 
 

Would you like to see your business listed on this page?

 If your business provides an interesting product or service to pilots, flight crews, aircraft, or users of the LZ Alfa Heliport, you should consider listing it here.  To start the listing process, click on the button below
 
Add a business
 

Other Pages about LZ Alfa Heliport

Update a link
 
Copyright © AirNav, LLC. All rights reserved. Privacy Policy  Contact